createdAt,value
2019-04-07T00:01:19.403Z,14.70
2019-04-07T00:03:46.062Z,14.73
2019-04-07T00:06:12.712Z,14.84
2019-04-07T00:08:39.588Z,14.78
2019-04-07T00:11:06.417Z,14.68
2019-04-07T00:13:32.998Z,14.46
2019-04-07T00:16:00.304Z,14.35
2019-04-07T00:18:28.239Z,14.35
2019-04-07T00:20:55.227Z,14.30
2019-04-07T00:23:21.817Z,14.21
2019-04-07T00:25:48.684Z,14.16
2019-04-07T00:28:15.267Z,14.20
2019-04-07T00:30:42.529Z,14.17
2019-04-07T00:33:09.282Z,14.08
2019-04-07T00:35:36.531Z,13.94
2019-04-07T00:38:09.582Z,13.90
2019-04-07T00:40:37.086Z,13.81
2019-04-07T00:43:04.516Z,13.74
2019-04-07T00:45:31.621Z,13.65
2019-04-07T00:47:59.632Z,13.55
2019-04-07T00:50:26.522Z,13.58
2019-04-07T00:52:53.171Z,13.71
2019-04-07T00:55:21.014Z,13.73
2019-04-07T00:57:48.242Z,13.63
2019-04-07T01:00:16.603Z,13.59
2019-04-07T01:02:44.078Z,13.58
2019-04-07T01:05:10.648Z,13.61
2019-04-07T01:07:37.241Z,13.56
2019-04-07T01:10:05.044Z,13.49
2019-04-07T01:12:31.942Z,13.48
2019-04-07T01:14:58.759Z,13.44
2019-04-07T01:17:26.945Z,13.45
2019-04-07T01:19:53.743Z,13.36
2019-04-07T01:22:20.816Z,13.33
2019-04-07T01:24:49.470Z,13.34
2019-04-07T01:27:16.096Z,13.17
2019-04-07T01:29:43.200Z,13.07
2019-04-07T01:32:10.246Z,13.01
2019-04-07T01:34:36.942Z,13.03
2019-04-07T01:37:03.630Z,12.99
2019-04-07T01:39:31.509Z,13.00
2019-04-07T01:41:58.983Z,12.95
2019-04-07T01:44:25.699Z,12.79
2019-04-07T01:46:52.486Z,12.74
2019-04-07T01:49:19.482Z,12.67
2019-04-07T01:51:46.504Z,12.65
2019-04-07T01:54:13.514Z,12.54
2019-04-07T01:56:40.268Z,12.58
2019-04-07T01:59:10.539Z,12.48
2019-04-07T02:01:36.465Z,12.44
2019-04-07T02:04:03.942Z,12.45
2019-04-07T02:06:31.142Z,12.36
2019-04-07T02:08:58.302Z,12.26
2019-04-07T02:11:25.150Z,12.12
2019-04-07T02:13:51.761Z,12.17
2019-04-07T02:16:19.182Z,12.20
2019-04-07T02:18:46.571Z,12.13
2019-04-07T02:21:13.332Z,12.18
2019-04-07T02:23:41.475Z,12.11
2019-04-07T02:26:08.769Z,12.18
2019-04-07T02:28:35.829Z,12.23
2019-04-07T02:31:02.670Z,12.10
2019-04-07T02:33:29.485Z,12.15
2019-04-07T02:36:12.080Z,11.98
2019-04-07T02:38:27.872Z,11.92
2019-04-07T02:40:55.715Z,11.96
2019-04-07T02:46:06.775Z,11.74
2019-04-07T02:48:33.894Z,11.82
2019-04-07T02:51:01.277Z,11.80
2019-04-07T02:53:28.827Z,11.67
2019-04-07T02:55:55.483Z,11.74
2019-04-07T02:58:22.821Z,11.64
2019-04-07T03:00:50.735Z,11.62
2019-04-07T03:03:18.688Z,11.52
2019-04-07T03:05:45.639Z,11.51
2019-04-07T03:08:12.290Z,11.49
2019-04-07T03:10:38.970Z,11.52
2019-04-07T03:13:06.212Z,11.48
2019-04-07T03:15:34.324Z,11.35
2019-04-07T03:18:01.083Z,11.22
2019-04-07T03:20:28.128Z,11.24
2019-04-07T03:22:55.903Z,11.11
2019-04-07T03:28:08.757Z,10.99
2019-04-07T03:30:38.150Z,10.85
2019-04-07T03:33:07.849Z,10.68
2019-04-07T03:35:34.803Z,10.80
2019-04-07T03:38:02.031Z,10.82
2019-04-07T03:40:28.686Z,10.87
2019-04-07T03:42:55.630Z,10.98
2019-04-07T03:45:22.518Z,10.92
2019-04-07T03:47:49.129Z,10.77
2019-04-07T03:50:16.587Z,10.83
2019-04-07T03:52:43.245Z,10.91
2019-04-07T03:55:10.116Z,10.86
2019-04-07T03:57:37.181Z,10.77
2019-04-07T04:00:04.215Z,10.84
2019-04-07T04:02:31.563Z,11.03
2019-04-07T04:04:58.493Z,11.12
2019-04-07T04:07:31.594Z,10.97
2019-04-07T04:09:53.791Z,10.98
2019-04-07T04:12:21.257Z,10.92
2019-04-07T04:14:48.732Z,10.84
2019-04-07T04:17:16.455Z,10.73
2019-04-07T04:19:43.994Z,10.78
2019-04-07T04:22:11.617Z,10.87
2019-04-07T04:24:38.280Z,11.05
2019-04-07T04:27:04.924Z,10.88
2019-04-07T04:29:31.821Z,10.67
2019-04-07T04:31:59.640Z,10.53
2019-04-07T04:34:27.135Z,10.34
2019-04-07T04:36:54.523Z,10.43
2019-04-07T04:39:21.487Z,10.60
2019-04-07T04:41:49.016Z,10.80
2019-04-07T04:44:18.449Z,10.96
2019-04-07T04:46:45.355Z,10.93
2019-04-07T04:49:12.019Z,10.74
2019-04-07T04:51:39.939Z,10.71
2019-04-07T04:54:08.313Z,10.51
2019-04-07T04:56:35.944Z,10.31
2019-04-07T04:59:02.727Z,10.33
2019-04-07T05:01:29.412Z,10.45
2019-04-07T05:03:56.020Z,10.56
2019-04-07T05:06:22.928Z,10.64
2019-04-07T05:08:49.972Z,10.65
2019-04-07T05:11:16.743Z,10.77
2019-04-07T05:13:44.621Z,10.75
2019-04-07T05:16:11.847Z,10.68
2019-04-07T05:18:38.715Z,10.80
2019-04-07T05:21:05.556Z,10.86
2019-04-07T05:26:18.965Z,10.95
2019-04-07T05:28:45.944Z,11.13
2019-04-07T05:31:13.286Z,11.36
2019-04-07T05:33:40.005Z,11.58
2019-04-07T05:36:06.975Z,11.73
2019-04-07T05:38:34.430Z,11.85
2019-04-07T05:41:01.694Z,12.00
2019-04-07T05:43:28.438Z,12.03
2019-04-07T05:45:55.492Z,12.17
2019-04-07T05:48:22.748Z,12.29
2019-04-07T05:50:49.337Z,12.30
2019-04-07T05:53:15.947Z,12.32
2019-04-07T05:55:42.818Z,12.33
2019-04-07T05:58:09.418Z,12.53
2019-04-07T06:00:36.230Z,12.72
2019-04-07T06:03:06.523Z,12.77
2019-04-07T06:05:31.127Z,13.10
2019-04-07T06:08:00.861Z,13.22
2019-04-07T06:10:28.689Z,13.20
2019-04-07T06:12:55.390Z,13.42
2019-04-07T06:15:23.388Z,13.42
2019-04-07T06:17:50.165Z,13.61
2019-04-07T06:20:18.896Z,13.77
2019-04-07T06:22:46.988Z,13.85
2019-04-07T06:25:14.167Z,13.80
2019-04-07T06:27:44.916Z,13.95
2019-04-07T06:30:09.786Z,14.31
2019-04-07T06:32:38.405Z,14.45
2019-04-07T06:35:05.092Z,14.69
2019-04-07T06:37:31.838Z,14.81
2019-04-07T06:40:01.083Z,15.03
2019-04-07T06:42:31.559Z,15.02
2019-04-07T06:44:56.684Z,15.05
2019-04-07T06:47:25.007Z,15.24
2019-04-07T06:49:52.072Z,15.20
2019-04-07T06:52:19.285Z,15.32
2019-04-07T06:54:52.024Z,15.20
2019-04-07T06:57:15.965Z,15.29
2019-04-07T06:59:45.640Z,15.48
2019-04-07T07:02:12.092Z,15.59
2019-04-07T07:04:41.587Z,15.68
2019-04-07T07:07:07.400Z,15.80
2019-04-07T07:09:34.025Z,15.89
2019-04-07T07:12:00.702Z,16.16
2019-04-07T07:14:38.034Z,16.36
2019-04-07T07:16:56.561Z,16.64
2019-04-07T07:19:26.341Z,16.68
2019-04-07T07:21:52.262Z,16.89
2019-04-07T07:24:25.405Z,17.21
2019-04-07T07:26:56.999Z,17.40
2019-04-07T07:29:22.359Z,17.39
2019-04-07T07:31:53.064Z,17.55
2019-04-07T07:34:30.454Z,17.83
2019-04-07T07:37:13.318Z,18.04
2019-04-07T07:39:57.976Z,17.97
2019-04-07T07:42:25.730Z,18.09
2019-04-07T07:44:53.569Z,18.25
2019-04-07T07:47:23.023Z,18.28
2019-04-07T07:50:08.956Z,18.20
2019-04-07T07:52:39.868Z,18.30
2019-04-07T07:55:13.104Z,17.91
2019-04-07T08:00:28.289Z,18.17
2019-04-07T08:02:56.144Z,18.28
2019-04-07T08:05:31.715Z,18.44
2019-04-07T08:08:02.407Z,18.50
2019-04-07T08:10:34.268Z,18.75
2019-04-07T08:13:07.868Z,19.18
2019-04-07T08:15:34.781Z,18.91
2019-04-07T08:18:07.041Z,18.80
2019-04-07T08:23:22.015Z,18.84
2019-04-07T08:25:52.905Z,19.10
2019-04-07T08:28:24.461Z,19.30
2019-04-07T08:30:56.419Z,19.52
2019-04-07T08:33:24.794Z,19.45
2019-04-07T08:35:54.874Z,19.43
2019-04-07T08:38:25.311Z,19.44
2019-04-07T08:41:10.173Z,19.53
2019-04-07T08:43:39.839Z,19.66
2019-04-07T08:46:11.109Z,19.80
2019-04-07T08:48:38.949Z,20.01
2019-04-07T08:51:11.266Z,20.11
2019-04-07T08:53:43.564Z,20.13
2019-04-07T08:56:13.176Z,20.07
2019-04-07T08:58:42.862Z,20.03
2019-04-07T09:01:10.524Z,20.51
2019-04-07T09:03:37.200Z,21.11
2019-04-07T09:06:04.565Z,21.13
2019-04-07T09:08:34.641Z,21.14
2019-04-07T09:11:06.056Z,21.07
2019-04-07T09:13:34.223Z,21.04
2019-04-07T09:16:01.159Z,21.01
2019-04-07T09:18:27.759Z,21.24
2019-04-07T09:23:40.416Z,22.01
2019-04-07T09:26:01.563Z,21.93
2019-04-07T09:28:28.521Z,21.80
2019-04-07T09:30:56.340Z,21.51
2019-04-07T09:33:27.603Z,21.60
2019-04-07T09:38:40.917Z,21.68
2019-04-07T09:41:09.480Z,21.80
2019-04-07T09:46:24.207Z,21.65
2019-04-07T09:48:52.825Z,21.02
2019-04-07T09:51:22.772Z,20.83
2019-04-07T09:53:52.398Z,20.95
2019-04-07T09:56:20.050Z,21.43
2019-04-07T09:58:47.653Z,21.79
2019-04-07T10:01:18.954Z,21.68
2019-04-07T10:03:42.765Z,21.63
2019-04-07T10:06:10.617Z,21.55
2019-04-07T10:08:40.841Z,21.69
2019-04-07T10:11:08.510Z,22.08
2019-04-07T10:13:49.664Z,22.10
2019-04-07T10:16:11.910Z,21.87
2019-04-07T10:18:40.101Z,22.05
2019-04-07T10:21:14.293Z,21.91
2019-04-07T10:23:40.695Z,22.08
2019-04-07T10:26:09.618Z,22.08
2019-04-07T10:28:40.901Z,22.22
2019-04-07T10:31:09.256Z,22.68
2019-04-07T10:33:37.813Z,23.18
2019-04-07T10:36:09.337Z,23.22
2019-04-07T10:38:41.427Z,23.40
2019-04-07T10:41:10.721Z,23.43
2019-04-07T10:46:28.344Z,23.18
2019-04-07T10:48:57.837Z,23.09
2019-04-07T10:51:34.378Z,22.95
2019-04-07T10:54:03.779Z,22.74
2019-04-07T10:56:30.849Z,22.56
2019-04-07T10:58:59.687Z,22.86
2019-04-07T11:01:33.632Z,23.14
2019-04-07T11:04:00.389Z,23.68
2019-04-07T11:06:27.321Z,23.96
2019-04-07T11:08:56.811Z,23.89
2019-04-07T11:11:28.597Z,23.40
2019-04-07T11:13:56.980Z,23.41
2019-04-07T11:16:27.254Z,23.32
2019-04-07T11:18:58.539Z,23.80
2019-04-07T11:21:34.950Z,23.77
2019-04-07T11:26:48.558Z,24.35
2019-04-07T11:29:26.285Z,25.10
2019-04-07T11:31:55.386Z,25.13
2019-04-07T11:34:28.222Z,25.17
2019-04-07T11:36:57.104Z,24.74
2019-04-07T11:39:33.711Z,24.40
2019-04-07T11:44:57.512Z,25.04
2019-04-07T11:47:26.538Z,24.59
2019-04-07T11:49:53.934Z,24.65
2019-04-07T11:52:21.042Z,24.93
2019-04-07T11:54:51.160Z,25.25
2019-04-07T11:58:03.645Z,25.25
2019-04-07T11:59:57.588Z,24.30
2019-04-07T12:02:28.853Z,24.20
2019-04-07T12:04:58.972Z,24.78
2019-04-07T12:07:31.131Z,25.05
2019-04-07T12:10:03.017Z,25.46
2019-04-07T12:12:31.125Z,25.50
2019-04-07T12:14:58.890Z,25.22
2019-04-07T12:17:25.655Z,25.27
2019-04-07T12:19:55.987Z,25.86
2019-04-07T12:22:23.698Z,25.85
2019-04-07T12:24:52.131Z,25.67
2019-04-07T12:27:21.605Z,24.71
2019-04-07T12:29:49.507Z,24.51
2019-04-07T12:32:17.058Z,24.52
2019-04-07T12:34:46.392Z,25.12
2019-04-07T12:37:12.899Z,25.45
2019-04-07T12:39:40.715Z,25.72
2019-04-07T12:42:08.480Z,25.73
2019-04-07T12:44:36.453Z,25.92
2019-04-07T12:47:03.275Z,24.94
2019-04-07T12:49:30.141Z,24.67
2019-04-07T12:51:57.108Z,24.85
2019-04-07T12:54:24.410Z,24.81
2019-04-07T12:56:51.288Z,25.30
2019-04-07T12:59:19.126Z,25.85
2019-04-07T13:01:48.481Z,25.97
2019-04-07T13:04:15.473Z,25.91
2019-04-07T13:06:45.222Z,25.52
2019-04-07T13:09:11.460Z,25.40
2019-04-07T13:11:42.748Z,25.10
2019-04-07T13:14:09.561Z,24.93
2019-04-07T13:16:35.960Z,24.89
2019-04-07T13:19:04.119Z,24.92
2019-04-07T13:21:32.208Z,25.37
2019-04-07T13:23:59.380Z,25.86
2019-04-07T13:26:30.255Z,25.38
2019-04-07T13:28:54.974Z,25.05
2019-04-07T13:31:21.848Z,24.98
2019-04-07T13:33:48.732Z,25.04
2019-04-07T13:36:16.010Z,25.11
2019-04-07T13:38:43.183Z,25.25
2019-04-07T13:41:10.469Z,24.87
2019-04-07T13:43:38.096Z,24.98
2019-04-07T13:46:04.736Z,24.77
2019-04-07T13:48:34.397Z,24.57
2019-04-07T13:51:01.075Z,24.48
2019-04-07T13:53:30.523Z,24.34
2019-04-07T13:55:57.247Z,24.11
2019-04-07T13:58:25.030Z,24.27
2019-04-07T14:00:52.972Z,24.18
2019-04-07T14:03:23.372Z,24.15
2019-04-07T14:05:49.096Z,24.07
2019-04-07T14:08:16.366Z,24.00
2019-04-07T14:10:43.939Z,23.95
2019-04-07T14:13:10.828Z,24.18
2019-04-07T14:15:37.634Z,24.23
2019-04-07T14:18:04.794Z,24.07
2019-04-07T14:20:31.808Z,23.95
2019-04-07T14:22:59.152Z,23.95
2019-04-07T14:25:26.779Z,23.83
2019-04-07T14:27:53.724Z,23.91
2019-04-07T14:30:21.298Z,23.95
2019-04-07T14:32:50.742Z,23.96
2019-04-07T14:35:19.419Z,23.74
2019-04-07T14:37:46.294Z,23.84
2019-04-07T14:40:13.285Z,23.70
2019-04-07T14:42:40.662Z,23.39
2019-04-07T14:45:07.807Z,23.38
2019-04-07T14:47:34.966Z,23.20
2019-04-07T14:50:02.035Z,23.01
2019-04-07T14:52:31.871Z,23.10
2019-04-07T14:54:59.911Z,23.25
2019-04-07T14:57:26.914Z,23.45
2019-04-07T14:59:54.534Z,23.43
2019-04-07T15:02:22.765Z,23.40
2019-04-07T15:04:50.946Z,23.20
2019-04-07T15:07:22.145Z,23.36
2019-04-07T15:09:50.009Z,23.44
2019-04-07T15:12:23.896Z,22.89
2019-04-07T15:14:48.041Z,22.75
2019-04-07T15:17:16.600Z,22.83
2019-04-07T15:19:44.212Z,23.00
2019-04-07T15:22:12.160Z,23.06
2019-04-07T15:24:39.582Z,23.09
2019-04-07T15:27:07.893Z,23.10
2019-04-07T15:29:39.418Z,23.16
2019-04-07T15:32:06.001Z,23.02
2019-04-07T15:34:33.265Z,22.74
2019-04-07T15:37:00.856Z,22.49
2019-04-07T15:39:28.912Z,22.54
2019-04-07T15:41:56.656Z,22.31
2019-04-07T15:44:23.473Z,22.00
2019-04-07T15:46:53.273Z,21.90
2019-04-07T15:49:20.475Z,21.93
2019-04-07T15:51:48.780Z,21.85
2019-04-07T15:54:22.322Z,21.78
2019-04-07T15:56:49.290Z,21.85
2019-04-07T15:59:17.639Z,21.88
2019-04-07T16:01:44.137Z,21.87
2019-04-07T16:04:11.767Z,21.88
2019-04-07T16:06:39.762Z,21.83
2019-04-07T16:09:11.799Z,21.72
2019-04-07T16:11:35.814Z,21.51
2019-04-07T16:14:08.692Z,21.37
2019-04-07T16:16:33.244Z,21.47
2019-04-07T16:19:00.159Z,21.44
2019-04-07T16:21:29.690Z,21.51
2019-04-07T16:23:56.063Z,21.62
2019-04-07T16:26:24.755Z,21.64
2019-04-07T16:28:51.994Z,21.69
2019-04-07T16:31:19.789Z,21.75
2019-04-07T16:33:47.522Z,21.70
2019-04-07T16:36:15.414Z,21.67
2019-04-07T16:38:44.083Z,21.60
2019-04-07T16:41:13.770Z,21.19
2019-04-07T16:43:41.991Z,20.94
2019-04-07T16:46:12.247Z,21.03
2019-04-07T16:48:40.246Z,20.87
2019-04-07T16:51:07.934Z,20.52
2019-04-07T16:53:37.928Z,20.56
2019-04-07T16:56:04.124Z,20.45
2019-04-07T16:58:35.319Z,20.35
2019-04-07T17:01:01.239Z,20.17
2019-04-07T17:03:29.579Z,19.87
2019-04-07T17:05:59.344Z,19.76
2019-04-07T17:11:13.993Z,19.61
2019-04-07T17:13:42.647Z,19.49
2019-04-07T17:16:11.851Z,19.49
2019-04-07T17:18:41.114Z,19.59
2019-04-07T17:21:09.487Z,19.53
2019-04-07T17:23:38.625Z,19.26
2019-04-07T17:26:14.449Z,19.15
2019-04-07T17:28:57.974Z,19.17
2019-04-07T17:31:27.084Z,19.12
2019-04-07T17:33:58.628Z,19.09
2019-04-07T17:36:25.309Z,19.29
2019-04-07T17:38:55.180Z,19.32
2019-04-07T17:41:25.846Z,19.32
2019-04-07T17:43:58.414Z,19.26
2019-04-07T17:46:30.628Z,19.26
2019-04-07T17:48:57.185Z,19.27
2019-04-07T17:51:26.134Z,19.21
2019-04-07T17:53:53.950Z,19.20
2019-04-07T17:56:43.144Z,19.17
2019-04-07T17:59:04.443Z,19.11
2019-04-07T18:01:44.523Z,19.22
2019-04-07T18:04:03.701Z,19.10
2019-04-07T18:06:40.639Z,18.82
2019-04-07T18:09:07.942Z,18.72
2019-04-07T18:14:10.391Z,18.83
2019-04-07T18:16:40.737Z,18.87
2019-04-07T18:19:15.561Z,18.85
2019-04-07T18:21:51.517Z,18.78
2019-04-07T18:24:18.075Z,18.69
2019-04-07T18:26:48.133Z,18.69
2019-04-07T18:29:29.406Z,18.65
2019-04-07T18:32:02.822Z,18.67
2019-04-07T18:34:31.452Z,18.69
2019-04-07T18:36:59.938Z,18.64
2019-04-07T18:39:27.483Z,18.45
2019-04-07T18:41:56.094Z,18.37
2019-04-07T18:44:42.827Z,18.40
2019-04-07T18:50:04.063Z,18.24
2019-04-07T18:52:30.567Z,18.11
2019-04-07T18:55:05.757Z,17.88
2019-04-07T18:57:32.480Z,17.88
2019-04-07T19:00:04.145Z,18.14
2019-04-07T19:02:30.103Z,18.20
2019-04-07T19:05:00.198Z,18.18
2019-04-07T19:07:29.216Z,18.10
2019-04-07T19:10:06.463Z,17.94
2019-04-07T19:12:29.990Z,17.91
2019-04-07T19:15:08.044Z,17.96
2019-04-07T19:17:33.640Z,17.94
2019-04-07T19:19:59.862Z,17.87
2019-04-07T19:22:31.419Z,17.74
2019-04-07T19:27:43.544Z,17.50
2019-04-07T19:30:13.100Z,17.42
2019-04-07T19:32:38.882Z,17.45
2019-04-07T19:35:05.861Z,17.38
2019-04-07T19:37:32.775Z,17.35
2019-04-07T19:40:01.557Z,17.33
2019-04-07T19:42:28.525Z,17.07
2019-04-07T19:44:55.506Z,16.78
2019-04-07T19:47:22.700Z,16.65
2019-04-07T19:49:50.518Z,16.55
2019-04-07T19:52:17.798Z,16.40
2019-04-07T19:54:49.457Z,16.43
2019-04-07T19:57:14.247Z,16.60
2019-04-07T19:59:42.896Z,16.67
2019-04-07T20:02:09.672Z,16.69
2019-04-07T20:04:37.179Z,16.84
2019-04-07T20:07:04.878Z,16.85
2019-04-07T20:09:32.119Z,16.83
2019-04-07T20:12:02.215Z,16.83
2019-04-07T20:14:28.451Z,16.73
2019-04-07T20:16:55.612Z,16.72
2019-04-07T20:19:22.424Z,16.68
2019-04-07T20:21:54.704Z,16.78
2019-04-07T20:24:17.744Z,17.02
2019-04-07T20:26:44.968Z,17.20
2019-04-07T20:29:11.991Z,17.17
2019-04-07T20:31:38.733Z,17.23
2019-04-07T20:34:06.120Z,17.25
2019-04-07T20:36:33.786Z,17.14
2019-04-07T20:39:00.723Z,17.28
2019-04-07T20:41:28.149Z,17.33
2019-04-07T20:43:55.764Z,17.20
2019-04-07T20:46:23.881Z,17.13
2019-04-07T20:48:50.676Z,17.18
2019-04-07T20:51:17.914Z,17.33
2019-04-07T20:53:45.157Z,17.30
2019-04-07T20:56:13.001Z,17.23
2019-04-07T20:58:46.403Z,17.04
2019-04-07T21:01:11.308Z,16.91
2019-04-07T21:03:36.559Z,16.88
2019-04-07T21:06:06.412Z,16.77
2019-04-07T21:08:34.278Z,16.77
2019-04-07T21:11:01.556Z,16.74
2019-04-07T21:13:28.946Z,16.79
2019-04-07T21:15:55.554Z,16.84
2019-04-07T21:18:23.655Z,16.86
2019-04-07T21:20:50.902Z,16.91
2019-04-07T21:23:19.481Z,16.89
2019-04-07T21:25:47.890Z,16.83
2019-04-07T21:28:14.516Z,16.65
2019-04-07T21:33:31.373Z,16.58
2019-04-07T21:36:13.001Z,16.45
2019-04-07T21:38:41.587Z,16.37
2019-04-07T21:41:19.342Z,16.41
2019-04-07T21:43:47.090Z,16.49
2019-04-07T21:46:22.415Z,16.51
2019-04-07T21:48:48.703Z,16.56
2019-04-07T21:51:19.776Z,16.57
2019-04-07T21:53:50.408Z,16.56
2019-04-07T21:56:22.211Z,16.42
2019-04-07T21:58:48.633Z,16.28
2019-04-07T22:01:19.944Z,16.19
2019-04-07T22:03:49.319Z,16.03
2019-04-07T22:06:17.733Z,15.98
2019-04-07T22:08:46.687Z,15.90
2019-04-07T22:11:13.269Z,15.77
2019-04-07T22:13:40.748Z,15.75
2019-04-07T22:16:07.997Z,15.78
2019-04-07T22:18:37.518Z,15.82
2019-04-07T22:21:03.406Z,15.94
2019-04-07T22:23:31.803Z,15.90
2019-04-07T22:26:12.638Z,15.93
2019-04-07T22:28:36.144Z,15.87
2019-04-07T22:31:03.625Z,15.91
2019-04-07T22:33:32.428Z,15.97
2019-04-07T22:35:59.618Z,16.05
2019-04-07T22:38:27.350Z,16.18
2019-04-07T22:40:54.609Z,16.08
2019-04-07T22:43:21.299Z,15.98
2019-04-07T22:45:55.771Z,15.89
2019-04-07T22:48:16.498Z,15.94
2019-04-07T22:50:43.461Z,15.97
2019-04-07T22:55:58.966Z,15.87
2019-04-07T22:58:25.839Z,15.97
2019-04-07T23:00:52.417Z,16.06
2019-04-07T23:03:19.658Z,16.03
2019-04-07T23:05:47.063Z,15.97
2019-04-07T23:08:14.545Z,15.93
2019-04-07T23:10:42.215Z,15.95
2019-04-07T23:13:13.288Z,15.94
2019-04-07T23:15:45.631Z,15.81
2019-04-07T23:18:13.770Z,15.51
2019-04-07T23:20:44.462Z,15.35
2019-04-07T23:23:15.390Z,15.32
2019-04-07T23:28:30.672Z,15.54
2019-04-07T23:30:59.035Z,15.50
2019-04-07T23:33:27.641Z,15.33
2019-04-07T23:35:57.514Z,15.26
2019-04-07T23:38:30.446Z,15.26
2019-04-07T23:41:03.293Z,15.07
2019-04-07T23:43:39.996Z,14.91
2019-04-07T23:46:05.126Z,14.86
2019-04-07T23:48:36.185Z,14.95
2019-04-07T23:51:09.032Z,14.78
2019-04-07T23:53:36.481Z,14.57
2019-04-07T23:56:10.044Z,14.68
